Marvel Cave Park, Missouri
Current Conditions -  °F | °C
As of 4:35 PM on Thursday 20 Nov 2014 (Local Time) from KFWB Reporting Station
Clear Clear  
Wind Chill: 46°   Ceiling: Unl
Heat Index: 48°   Visibility: 10mi
Dew Point: 21°   Wind: 5mph
Humidity: 34%   Direction: 80°E
Pressure: 30.11"   Gusts: NA
Location:  36.6858°N, 93.2638°W
Report Text: KFWB 202235Z AUTO 08004KT 10SM CLR 09/M06 A3011 RMK AO2
Loading
Personal Weather Stations






























Interactive Weather Map New forecast layout! Learn more

10-Day Weather Forecast

Advertisements
Track Severe Weather on mobile